Time;durP1;ratioP1;P1;durP2;ratioP2;P2;SDS_P1;SDS_P2;PMS_P1;PMS_P2;Temp;Humidity;BMP_temperature;BMP_pressure;BME280_temperature;BME280_humidity;BME280_pressure;Samples;Min_cycle;Max_cycle;Signal;HPM_P1;HPM_P2
2023/01/15 00:00:27;;;;;;;;;;;20.80;60.40;;;;;;1585894;74;1153;-71
2023/01/15 00:02:30;;;;;;;;;;;20.80;60.20;;;;;;1577727;74;769;-71
2023/01/15 00:04:32;;;;;;;;;;;20.80;60.10;;;;;;1580748;74;768;-71
2023/01/15 00:06:38;;;;;;;;;;;20.90;60.10;;;;;;1578383;74;737;-71
2023/01/15 00:08:39;;;;;;;;;;;20.90;60.00;;;;;;1582296;74;1543;-71
2023/01/15 00:10:41;;;;;;;;;;;20.90;60.00;;;;;;1586517;72;1123;-72
2023/01/15 00:12:43;;;;;;;;;;;20.90;60.00;;;;;;1575527;74;777;-71
2023/01/15 00:14:45;;;;;;;;;;;20.90;60.00;;;;;;1567534;74;738;-71
2023/01/15 00:16:48;;;;;;;;;;;21.00;59.80;;;;;;1581896;74;925;-71
2023/01/15 00:18:51;;;;;;;;;;;21.00;59.60;;;;;;1588097;74;2138;-72
2023/01/15 00:20:54;;;;;;;;;;;21.00;59.50;;;;;;1572678;74;1138;-71
2023/01/15 00:22:56;;;;;;;;;;;21.00;59.40;;;;;;1573782;74;1879;-73
2023/01/15 00:29:38;;;;;;;;;;;21.10;59.20;;;;;;1579709;74;1652;-70
2023/01/15 00:31:40;;;;;;;;;;;21.00;59.20;;;;;;1580089;74;667;-72
2023/01/15 00:33:41;;;;;;;;;;;21.00;59.10;;;;;;1585227;74;717;-72
2023/01/15 00:35:43;;;;;;;;;;;21.00;59.10;;;;;;1569895;74;723;-73
2023/01/15 00:37:45;;;;;;;;;;;21.10;59.20;;;;;;1589257;74;1949;-72
2023/01/15 00:39:47;;;;;;;;;;;21.00;59.20;;;;;;1584875;74;1178;-71
2023/01/15 00:41:49;;;;;;;;;;;21.00;59.20;;;;;;1570716;74;639;-71
2023/01/15 00:43:51;;;;;;;;;;;21.10;59.30;;;;;;1573398;74;753;-71
2023/01/15 00:45:53;;;;;;;;;;;21.00;59.30;;;;;;1571765;74;725;-69
2023/01/15 00:47:55;;;;;;;;;;;21.00;59.40;;;;;;1602305;74;783;-71
2023/01/15 00:49:57;;;;;;;;;;;21.00;59.50;;;;;;1580622;74;1124;-72
2023/01/15 00:51:59;;;;;;;;;;;21.00;59.50;;;;;;1587630;74;1579;-74
2023/01/15 00:54:01;;;;;;;;;;;20.90;59.50;;;;;;1572273;74;647;-73
2023/01/15 00:56:03;;;;;;;;;;;20.90;59.50;;;;;;1565610;74;803;-74
2023/01/15 00:58:05;;;;;;;;;;;20.80;59.50;;;;;;1581937;74;1931;-72
2023/01/15 01:00:07;;;;;;;;;;;20.90;59.60;;;;;;1581892;74;1148;-72
2023/01/15 01:02:09;;;;;;;;;;;21.00;59.60;;;;;;1570046;74;789;-71
2023/01/15 01:04:11;;;;;;;;;;;20.90;59.60;;;;;;1582504;74;751;-72
2023/01/15 01:06:12;;;;;;;;;;;20.80;59.60;;;;;;1568360;74;1487;-73
2023/01/15 01:08:14;;;;;;;;;;;20.90;59.90;;;;;;1578837;74;779;-72
2023/01/15 01:10:16;;;;;;;;;;;20.90;59.80;;;;;;1588726;74;1142;-72
2023/01/15 01:12:20;;;;;;;;;;;20.80;59.70;;;;;;1574317;74;675;-73
2023/01/15 01:14:22;;;;;;;;;;;20.80;59.80;;;;;;1576540;74;700;-72
2023/01/15 01:16:25;;;;;;;;;;;20.80;59.90;;;;;;1601968;74;738;-72
2023/01/15 01:18:27;;;;;;;;;;;20.80;59.90;;;;;;1588268;74;1910;-72
2023/01/15 01:20:29;;;;;;;;;;;20.80;59.90;;;;;;1583711;74;1080;-72
2023/01/15 01:22:32;;;;;;;;;;;20.80;59.80;;;;;;1578928;74;757;-72
2023/01/15 01:24:34;;;;;;;;;;;20.90;59.70;;;;;;1577217;74;817;-73
2023/01/15 01:26:36;;;;;;;;;;;20.80;59.70;;;;;;1589558;74;731;-74
2023/01/15 01:28:38;;;;;;;;;;;20.80;59.70;;;;;;1577516;74;739;-76
2023/01/15 01:30:40;;;;;;;;;;;20.90;59.90;;;;;;1576044;74;1122;-73
2023/01/15 01:32:44;;;;;;;;;;;20.90;59.80;;;;;;1574920;74;1556;-72
2023/01/15 01:34:46;;;;;;;;;;;20.90;59.70;;;;;;1574186;74;719;-72
2023/01/15 01:36:48;;;;;;;;;;;20.90;59.70;;;;;;1571626;74;658;-71
2023/01/15 01:38:50;;;;;;;;;;;21.00;59.60;;;;;;1574237;74;1933;-73
2023/01/15 01:40:52;;;;;;;;;;;21.00;59.50;;;;;;1569673;74;1152;-72
2023/01/15 01:42:54;;;;;;;;;;;21.00;59.30;;;;;;1578237;74;751;-72
2023/01/15 01:45:00;;;;;;;;;;;21.00;59.30;;;;;;1590732;74;770;-72
2023/01/15 01:47:06;;;;;;;;;;;21.00;59.40;;;;;;1588294;74;1709;-72
2023/01/15 01:49:09;;;;;;;;;;;21.00;59.50;;;;;;1585294;74;747;-72
2023/01/15 01:51:11;;;;;;;;;;;20.90;59.60;;;;;;1582013;74;1123;-71
2023/01/15 01:53:14;;;;;;;;;;;20.90;59.60;;;;;;1576012;74;797;-73
2023/01/15 01:55:17;;;;;;;;;;;20.90;59.70;;;;;;1580553;74;1011;-72
2023/01/15 01:57:19;;;;;;;;;;;20.90;59.70;;;;;;1586381;74;719;-75
2023/01/15 01:59:21;;;;;;;;;;;20.90;59.50;;;;;;1586700;74;1945;-73
2023/01/15 02:01:23;;;;;;;;;;;21.00;59.60;;;;;;1566509;74;1567;-71
2023/01/15 02:03:27;;;;;;;;;;;20.90;59.70;;;;;;1571259;74;749;-71
2023/01/15 02:05:30;;;;;;;;;;;20.90;59.70;;;;;;1569818;74;719;-73
2023/01/15 02:07:33;;;;;;;;;;;20.90;59.70;;;;;;1571996;74;1613;-73
2023/01/15 02:09:35;;;;;;;;;;;21.00;59.60;;;;;;1586849;74;861;-73
2023/01/15 02:11:37;;;;;;;;;;;21.00;59.60;;;;;;1571660;74;1175;-74
2023/01/15 02:13:39;;;;;;;;;;;21.00;59.60;;;;;;1578137;74;814;-70
2023/01/15 02:15:43;;;;;;;;;;;20.90;59.70;;;;;;1569510;74;1481;-71
2023/01/15 02:17:55;;;;;;;;;;;20.90;59.70;;;;;;1578523;74;739;-72
2023/01/15 02:19:59;;;;;;;;;;;21.00;59.60;;;;;;1581675;74;1922;-71
2023/01/15 02:22:02;;;;;;;;;;;21.00;59.50;;;;;;1570548;74;1088;-73
2023/01/15 02:24:09;;;;;;;;;;;21.00;59.50;;;;;;1572794;74;1155;-75
2023/01/15 02:26:12;;;;;;;;;;;21.00;59.40;;;;;;1577413;74;691;-74
2023/01/15 02:28:16;;;;;;;;;;;21.00;59.30;;;;;;1574036;74;774;-72
2023/01/15 02:30:21;;;;;;;;;;;21.00;59.30;;;;;;1587125;72;1473;-72
2023/01/15 02:32:24;;;;;;;;;;;21.00;59.20;;;;;;1590578;74;1681;-74
2023/01/15 02:34:27;;;;;;;;;;;21.00;59.10;;;;;;1576278;74;1079;-74
2023/01/15 02:36:29;;;;;;;;;;;21.10;59.10;;;;;;1594996;74;764;-72
2023/01/15 02:38:36;;;;;;;;;;;21.10;59.00;;;;;;1574694;74;1929;-73
2023/01/15 02:40:38;;;;;;;;;;;21.10;59.00;;;;;;1585831;74;1843;-74
2023/01/15 02:42:40;;;;;;;;;;;21.10;59.10;;;;;;1548820;75;734;-75
2023/01/15 02:44:43;;;;;;;;;;;21.10;59.10;;;;;;1587640;74;1524;-71
2023/01/15 02:46:44;;;;;;;;;;;21.10;59.20;;;;;;1584934;74;742;-70
2023/01/15 02:48:47;;;;;;;;;;;21.10;59.20;;;;;;1581620;74;791;-72
2023/01/15 02:50:50;;;;;;;;;;;21.10;59.20;;;;;;1577286;74;1136;-71
2023/01/15 02:52:53;;;;;;;;;;;21.10;59.10;;;;;;1591593;74;797;-72
2023/01/15 02:55:00;;;;;;;;;;;21.10;59.10;;;;;;1594506;74;814;-72
2023/01/15 02:57:02;;;;;;;;;;;21.10;59.30;;;;;;1583754;74;1559;-72
2023/01/15 02:59:05;;;;;;;;;;;21.00;59.30;;;;;;1592313;74;1931;-73
2023/01/15 03:01:11;;;;;;;;;;;21.00;59.40;;;;;;1575834;74;1306;-72
2023/01/15 03:03:15;;;;;;;;;;;21.00;59.30;;;;;;1580700;74;1829;-74
2023/01/15 03:05:18;;;;;;;;;;;21.00;59.40;;;;;;1567427;74;1106;-73
2023/01/15 03:07:30;;;;;;;;;;;20.90;59.40;;;;;;1594250;74;718;-74
2023/01/15 03:09:32;;;;;;;;;;;20.90;59.40;;;;;;1587776;74;1074;-73
2023/01/15 03:11:36;;;;;;;;;;;21.00;59.20;;;;;;1567060;74;1566;-71
2023/01/15 03:13:51;;;;;;;;;;;21.10;59.20;;;;;;1578291;74;720;-74
2023/01/15 03:18:20;;;;;;;;;;;21.00;59.10;;;;;;1566990;74;1681;-72
2023/01/15 03:20:24;;;;;;;;;;;21.00;59.10;;;;;;1569596;74;1917;-73
2023/01/15 03:22:30;;;;;;;;;;;21.00;59.30;;;;;;1587069;74;1915;-72
2023/01/15 03:24:40;;;;;;;;;;;21.00;59.60;;;;;;1579383;74;765;-72
2023/01/15 03:26:42;;;;;;;;;;;20.90;59.90;;;;;;1581615;74;1811;-74
2023/01/15 03:28:43;;;;;;;;;;;20.90;60.20;;;;;;1581481;74;730;-72
2023/01/15 03:30:45;;;;;;;;;;;20.90;60.40;;;;;;1572086;74;1134;-71
2023/01/15 03:32:47;;;;;;;;;;;20.90;60.90;;;;;;1575519;74;712;-70
2023/01/15 03:34:50;;;;;;;;;;;20.80;60.80;;;;;;1572024;74;599;-72
2023/01/15 03:36:52;;;;;;;;;;;20.90;60.90;;;;;;1580158;74;736;-72
2023/01/15 03:38:54;;;;;;;;;;;20.80;61.00;;;;;;1569222;74;1959;-71
2023/01/15 03:40:57;;;;;;;;;;;20.90;61.30;;;;;;1595047;74;1739;-72
2023/01/15 03:45:25;;;;;;;;;;;20.90;61.30;;;;;;1590760;74;1669;-72
2023/01/15 03:47:47;;;;;;;;;;;20.90;61.40;;;;;;1588170;74;710;-75
2023/01/15 03:49:50;;;;;;;;;;;20.90;61.30;;;;;;1590649;74;1213;-72
2023/01/15 03:52:00;;;;;;;;;;;20.90;61.30;;;;;;1572401;74;871;-72
2023/01/15 03:54:02;;;;;;;;;;;20.90;61.40;;;;;;1580400;74;1513;-73
2023/01/15 03:56:08;;;;;;;;;;;21.00;61.20;;;;;;1598463;74;730;-72
2023/01/15 03:58:18;;;;;;;;;;;21.00;61.10;;;;;;1573193;74;724;-72
2023/01/15 04:00:26;;;;;;;;;;;21.00;61.00;;;;;;1594642;72;1949;-72
2023/01/15 04:02:28;;;;;;;;;;;21.00;61.10;;;;;;1582118;74;723;-72
2023/01/15 04:04:30;;;;;;;;;;;21.00;60.90;;;;;;1575257;74;804;-73
2023/01/15 04:06:33;;;;;;;;;;;21.00;60.80;;;;;;1574999;74;996;-72
2023/01/15 04:08:37;;;;;;;;;;;21.00;60.80;;;;;;1566178;74;1559;-72
2023/01/15 04:10:40;;;;;;;;;;;21.00;60.70;;;;;;1596970;72;1126;-72
2023/01/15 04:12:42;;;;;;;;;;;21.00;60.70;;;;;;1566742;74;1056;-74
2023/01/15 04:14:44;;;;;;;;;;;21.20;60.80;;;;;;1562007;74;712;-75
2023/01/15 04:16:46;;;;;;;;;;;21.10;60.70;;;;;;1581546;74;714;-75
2023/01/15 04:18:48;;;;;;;;;;;21.10;60.60;;;;;;1576843;74;723;-75
2023/01/15 04:20:50;;;;;;;;;;;21.10;60.50;;;;;;1581233;72;1955;-73
2023/01/15 04:22:52;;;;;;;;;;;21.10;60.50;;;;;;1577482;74;1649;-74
2023/01/15 04:24:54;;;;;;;;;;;21.10;60.40;;;;;;1582453;74;806;-73
2023/01/15 04:26:56;;;;;;;;;;;21.10;60.40;;;;;;1571979;74;850;-73
2023/01/15 04:28:58;;;;;;;;;;;21.10;60.40;;;;;;1576217;74;733;-73
2023/01/15 04:31:00;;;;;;;;;;;21.10;60.40;;;;;;1565508;74;1114;-71
2023/01/15 04:33:01;;;;;;;;;;;21.10;60.30;;;;;;1589188;74;726;-72
2023/01/15 04:35:03;;;;;;;;;;;21.10;60.30;;;;;;1578649;74;653;-72
2023/01/15 04:37:05;;;;;;;;;;;21.20;60.40;;;;;;1588247;74;1591;-74
2023/01/15 04:39:07;;;;;;;;;;;21.30;60.40;;;;;;1577201;74;1942;-73
2023/01/15 04:45:49;;;;;;;;;;;21.20;60.50;;;;;;1575351;74;1630;-73
2023/01/15 04:47:51;;;;;;;;;;;21.20;60.40;;;;;;1587778;74;823;-75
2023/01/15 04:49:53;;;;;;;;;;;21.30;60.50;;;;;;1572536;74;1278;-73
2023/01/15 04:51:55;;;;;;;;;;;21.20;60.40;;;;;;1581256;73;2144;-69
2023/01/15 04:53:56;;;;;;;;;;;21.30;60.40;;;;;;1584998;74;807;-67
2023/01/15 04:56:02;;;;;;;;;;;21.30;60.40;;;;;;1584859;74;726;-67
2023/01/15 04:58:04;;;;;;;;;;;21.20;60.40;;;;;;1582584;74;603;-67
2023/01/15 05:00:06;;;;;;;;;;;21.30;60.70;;;;;;1579263;74;1925;-68
2023/01/15 05:02:08;;;;;;;;;;;21.30;60.60;;;;;;1558868;75;1152;-68
2023/01/15 05:04:10;;;;;;;;;;;21.30;60.50;;;;;;1545701;75;1430;-66
2023/01/15 05:06:13;;;;;;;;;;;21.30;60.40;;;;;;1557477;76;801;-68
2023/01/15 05:08:15;;;;;;;;;;;21.30;60.40;;;;;;1554537;75;778;-67
2023/01/15 05:10:17;;;;;;;;;;;21.30;60.40;;;;;;1557417;76;662;-67
2023/01/15 05:12:18;;;;;;;;;;;21.30;60.40;;;;;;1556620;75;1143;-67
2023/01/15 05:14:20;;;;;;;;;;;21.30;60.30;;;;;;1556974;75;802;-67
2023/01/15 05:16:24;;;;;;;;;;;21.30;60.30;;;;;;1557443;75;794;-68
2023/01/15 05:18:26;;;;;;;;;;;21.30;60.20;;;;;;1556909;75;1590;-66
2023/01/15 05:20:27;;;;;;;;;;;21.40;60.50;;;;;;1557075;75;1931;-69
2023/01/15 05:22:29;;;;;;;;;;;21.40;60.00;;;;;;1557760;75;1079;-69
2023/01/15 05:24:31;;;;;;;;;;;21.50;60.10;;;;;;1556018;75;699;-67
2023/01/15 05:26:33;;;;;;;;;;;21.50;60.10;;;;;;1556880;75;788;-66
2023/01/15 05:28:35;;;;;;;;;;;21.50;60.10;;;;;;1556688;75;934;-67
2023/01/15 05:30:37;;;;;;;;;;;21.50;60.30;;;;;;1556938;75;1111;-68
2023/01/15 05:32:39;;;;;;;;;;;21.50;60.20;;;;;;1555386;75;1309;-67
2023/01/15 05:34:40;;;;;;;;;;;21.50;60.20;;;;;;1556605;75;774;-67
2023/01/15 05:36:42;;;;;;;;;;;21.40;60.10;;;;;;1557391;75;773;-68
2023/01/15 05:38:44;;;;;;;;;;;21.40;60.20;;;;;;1556252;75;598;-66
2023/01/15 05:40:46;;;;;;;;;;;21.40;60.30;;;;;;1555163;75;1951;-68
2023/01/15 05:42:48;;;;;;;;;;;21.50;60.50;;;;;;1557043;75;728;-67
2023/01/15 05:44:50;;;;;;;;;;;21.50;60.40;;;;;;1557079;75;789;-67
2023/01/15 05:46:53;;;;;;;;;;;21.50;60.40;;;;;;1554908;75;1460;-67
2023/01/15 05:48:57;;;;;;;;;;;21.50;60.30;;;;;;1559838;75;699;-68
2023/01/15 05:51:00;;;;;;;;;;;21.40;60.20;;;;;;1557064;75;1200;-67
2023/01/15 05:53:02;;;;;;;;;;;21.50;60.30;;;;;;1548116;75;811;-67
2023/01/15 05:55:04;;;;;;;;;;;21.50;60.30;;;;;;1545316;76;729;-67
2023/01/15 05:57:06;;;;;;;;;;;21.40;60.10;;;;;;1545360;75;790;-67
2023/01/15 05:59:08;;;;;;;;;;;21.50;60.20;;;;;;1547104;75;725;-67
2023/01/15 06:01:10;;;;;;;;;;;21.50;60.10;;;;;;1546619;75;1943;-68
2023/01/15 06:03:12;;;;;;;;;;;21.50;60.20;;;;;;1545950;75;717;-67
2023/01/15 06:05:18;;;;;;;;;;;21.50;60.10;;;;;;1545820;76;713;-69
2023/01/15 06:07:17;;;;;;;;;;;21.50;60.10;;;;;;1546019;76;1546;-68
2023/01/15 06:09:21;;;;;;;;;;;21.50;60.20;;;;;;1544726;75;740;-69
2023/01/15 06:11:23;;;;;;;;;;;21.50;60.40;;;;;;1546696;76;1455;-71
2023/01/15 06:13:25;;;;;;;;;;;21.50;60.30;;;;;;1541400;75;809;-69
2023/01/15 06:15:27;;;;;;;;;;;21.50;60.30;;;;;;1543531;75;1780;-68
2023/01/15 06:17:28;;;;;;;;;;;21.50;60.20;;;;;;1547046;75;716;-69
2023/01/15 06:19:31;;;;;;;;;;;21.50;60.10;;;;;;1544544;76;741;-68
2023/01/15 06:21:33;;;;;;;;;;;21.60;60.10;;;;;;1542766;76;1917;-69
2023/01/15 06:23:38;;;;;;;;;;;21.60;60.00;;;;;;1546505;75;701;-69
2023/01/15 06:25:39;;;;;;;;;;;21.50;60.10;;;;;;1546887;75;682;-69
2023/01/15 06:27:43;;;;;;;;;;;21.60;60.20;;;;;;1546023;75;730;-68
2023/01/15 06:29:45;;;;;;;;;;;21.50;60.20;;;;;;1545000;75;1618;-71
2023/01/15 06:32:06;;;;;;;;;;;21.50;60.10;;;;;;1546641;75;1134;-70
2023/01/15 06:34:08;;;;;;;;;;;21.60;60.40;;;;;;1582051;74;681;-57
2023/01/15 06:36:11;;;;;;;;;;;21.50;60.20;;;;;;1580471;74;752;-58
2023/01/15 06:38:12;;;;;;;;;;;21.50;60.10;;;;;;1578232;74;725;-58
2023/01/15 06:40:14;;;;;;;;;;;21.50;60.10;;;;;;1575721;74;1950;-57
2023/01/15 06:49:15;;;;;;;;;;;21.50;60.00;;;;;;1575714;74;1615;-58
2023/01/15 06:51:19;;;;;;;;;;;21.60;60.00;;;;;;1577113;74;660;-58
2023/01/15 06:53:21;;;;;;;;;;;21.50;59.90;;;;;;1577085;74;1702;-59
2023/01/15 06:55:23;;;;;;;;;;;21.60;60.00;;;;;;1575093;74;669;-59
2023/01/15 06:57:25;;;;;;;;;;;21.60;59.90;;;;;;1570610;74;1477;-58
2023/01/15 06:59:26;;;;;;;;;;;21.60;59.90;;;;;;1575065;74;1243;-58
2023/01/15 07:01:30;;;;;;;;;;;21.50;59.90;;;;;;1572231;74;1931;-57
2023/01/15 07:03:31;;;;;;;;;;;21.60;60.30;;;;;;1574331;74;708;-57
2023/01/15 07:05:33;;;;;;;;;;;21.70;60.40;;;;;;1575495;74;790;-57
2023/01/15 07:07:35;;;;;;;;;;;21.70;60.10;;;;;;1575985;74;793;-59
2023/01/15 07:09:37;;;;;;;;;;;21.70;59.80;;;;;;1577976;74;1232;-58
2023/01/15 07:11:51;;;;;;;;;;;21.80;59.40;;;;;;1566116;74;1305;-59
2023/01/15 07:14:04;;;;;;;;;;;21.80;58.90;;;;;;1574163;74;627;-58
2023/01/15 07:15:57;;;;;;;;;;;21.90;58.80;;;;;;1579260;74;1627;-58
2023/01/15 07:17:59;;;;;;;;;;;21.80;58.60;;;;;;1578528;74;820;-58
2023/01/15 07:20:01;;;;;;;;;;;21.80;58.50;;;;;;1579042;74;1157;-58
2023/01/15 07:22:03;;;;;;;;;;;21.80;57.90;;;;;;1578570;74;1969;-58
2023/01/15 07:24:05;;;;;;;;;;;21.80;57.80;;;;;;1579129;74;1453;-58
2023/01/15 07:26:07;;;;;;;;;;;21.80;57.70;;;;;;1577772;74;702;-58
2023/01/15 07:28:09;;;;;;;;;;;21.70;57.50;;;;;;1572444;74;694;-57
2023/01/15 07:30:12;;;;;;;;;;;21.80;57.50;;;;;;1574764;74;1123;-58
2023/01/15 07:32:14;;;;;;;;;;;21.80;57.30;;;;;;1572469;74;879;-58
2023/01/15 07:34:15;;;;;;;;;;;21.80;57.40;;;;;;1570060;74;772;-58
2023/01/15 07:36:17;;;;;;;;;;;21.70;57.30;;;;;;1562625;74;781;-61
2023/01/15 07:38:19;;;;;;;;;;;21.70;57.40;;;;;;1565389;74;1463;-58
2023/01/15 07:40:21;;;;;;;;;;;21.70;57.40;;;;;;1562512;74;1937;-58
2023/01/15 07:51:37;;;;;;;;;;;21.70;57.10;;;;;;1562219;74;1632;-58
2023/01/15 07:53:39;;;;;;;;;;;21.70;57.10;;;;;;1564605;74;1577;-57
2023/01/15 07:55:41;;;;;;;;;;;21.60;57.00;;;;;;1552998;74;747;-58
2023/01/15 07:57:43;;;;;;;;;;;21.60;57.10;;;;;;1564361;75;648;-58
2023/01/15 07:59:45;;;;;;;;;;;21.70;57.10;;;;;;1565885;74;1133;-56
2023/01/15 08:01:47;;;;;;;;;;;21.70;57.00;;;;;;1567705;74;1950;-57
2023/01/15 08:03:49;;;;;;;;;;;21.70;57.10;;;;;;1563923;74;707;-60
2023/01/15 08:05:51;;;;;;;;;;;21.60;56.90;;;;;;1562363;74;725;-58
2023/01/15 08:07:52;;;;;;;;;;;21.60;56.90;;;;;;1558325;74;1385;-57
2023/01/15 08:09:54;;;;;;;;;;;21.60;57.00;;;;;;1563454;74;1122;-58
2023/01/15 08:16:38;;;;;;;;;;;21.60;56.90;;;;;;1555285;74;1652;-59
2023/01/15 08:18:40;;;;;;;;;;;21.60;56.90;;;;;;1563371;74;759;-57
2023/01/15 08:20:42;;;;;;;;;;;21.60;56.80;;;;;;1565885;74;1957;-58
2023/01/15 08:22:43;;;;;;;;;;;21.60;56.90;;;;;;1556549;74;730;-59
2023/01/15 08:24:45;;;;;;;;;;;21.60;56.80;;;;;;1528878;76;768;-59
2023/01/15 08:26:47;;;;;;;;;;;21.60;56.90;;;;;;1524897;78;711;-58
2023/01/15 08:28:49;;;;;;;;;;;21.60;56.80;;;;;;1515237;78;1144;-58
2023/01/15 08:30:51;;;;;;;;;;;21.60;56.80;;;;;;1526291;77;687;-57
2023/01/15 08:32:55;;;;;;;;;;;21.60;56.90;;;;;;1512994;78;814;-57
2023/01/15 08:34:57;;;;;;;;;;;21.60;56.90;;;;;;1520082;76;1821;-58
2023/01/15 08:37:01;;;;;;;;;;;21.60;56.90;;;;;;1525413;76;733;-60
2023/01/15 08:39:03;;;;;;;;;;;21.60;56.80;;;;;;1527202;76;1248;-58
2023/01/15 08:41:05;;;;;;;;;;;21.60;56.80;;;;;;1525131;76;1950;-59
2023/01/15 08:43:07;;;;;;;;;;;21.60;56.80;;;;;;1526445;76;807;-57
2023/01/15 08:45:09;;;;;;;;;;;21.60;56.70;;;;;;1530554;76;706;-58
2023/01/15 08:47:11;;;;;;;;;;;21.70;56.80;;;;;;1529094;76;815;-58
2023/01/15 08:49:13;;;;;;;;;;;21.60;56.60;;;;;;1528575;76;1508;-58
2023/01/15 08:51:15;;;;;;;;;;;21.60;56.70;;;;;;1523868;76;720;-59
2023/01/15 08:53:23;;;;;;;;;;;21.60;56.70;;;;;;1526109;76;730;-58
2023/01/15 08:55:21;;;;;;;;;;;21.60;56.70;;;;;;1521495;76;1518;-57
2023/01/15 08:57:23;;;;;;;;;;;21.60;56.70;;;;;;1524367;76;709;-57
2023/01/15 08:59:25;;;;;;;;;;;21.60;56.70;;;;;;1524553;76;1183;-59
2023/01/15 09:01:27;;;;;;;;;;;21.60;56.60;;;;;;1528211;76;1948;-59
2023/01/15 09:03:28;;;;;;;;;;;21.60;56.60;;;;;;1525512;76;1486;-58
2023/01/15 09:05:30;;;;;;;;;;;21.60;56.70;;;;;;1524317;76;817;-58
2023/01/15 09:07:34;;;;;;;;;;;21.60;56.60;;;;;;1526746;76;779;-57
2023/01/15 09:09:35;;;;;;;;;;;21.60;56.60;;;;;;1529758;76;1150;-58
2023/01/15 09:11:40;;;;;;;;;;;21.60;56.60;;;;;;1527464;76;737;-57
2023/01/15 09:13:42;;;;;;;;;;;21.60;56.60;;;;;;1523080;76;700;-57
2023/01/15 09:15:44;;;;;;;;;;;21.60;56.50;;;;;;1525085;76;729;-57
2023/01/15 09:17:46;;;;;;;;;;;21.60;56.50;;;;;;1519882;76;1486;-57
2023/01/15 09:19:48;;;;;;;;;;;21.70;56.50;;;;;;1512915;77;1164;-58
2023/01/15 09:21:50;;;;;;;;;;;21.60;56.50;;;;;;1515502;76;1926;-57
2023/01/15 09:23:52;;;;;;;;;;;21.70;56.50;;;;;;1520987;77;707;-57
2023/01/15 09:25:54;;;;;;;;;;;21.60;56.40;;;;;;1519162;77;738;-58
2023/01/15 09:27:56;;;;;;;;;;;21.60;56.40;;;;;;1515437;77;697;-58
2023/01/15 09:29:58;;;;;;;;;;;21.70;56.40;;;;;;1517621;77;1156;-58
2023/01/15 09:32:00;;;;;;;;;;;21.60;56.30;;;;;;1516453;76;1440;-58
2023/01/15 09:34:02;;;;;;;;;;;21.60;56.40;;;;;;1515077;77;826;-57
2023/01/15 09:36:05;;;;;;;;;;;21.60;56.50;;;;;;1521227;77;629;-58
2023/01/15 09:38:09;;;;;;;;;;;21.60;56.50;;;;;;1521526;77;623;-58
2023/01/15 09:40:21;;;;;;;;;;;21.60;56.50;;;;;;1519443;77;1167;-59
2023/01/15 09:42:25;;;;;;;;;;;21.60;56.50;;;;;;1520219;77;1900;-57
2023/01/15 09:44:45;;;;;;;;;;;21.60;56.50;;;;;;1517457;77;2138;-59
2023/01/15 09:46:51;;;;;;;;;;;21.60;56.50;;;;;;1520063;77;731;-58
2023/01/15 09:49:12;;;;;;;;;;;21.60;56.60;;;;;;1503900;77;1690;-58
2023/01/15 09:51:24;;;;;;;;;;;21.60;56.50;;;;;;1516176;77;762;-57
2023/01/15 09:53:37;;;;;;;;;;;21.60;56.60;;;;;;1516610;77;1856;-58
2023/01/15 09:55:41;;;;;;;;;;;21.60;56.60;;;;;;1511487;77;783;-57
2023/01/15 09:57:45;;;;;;;;;;;21.70;56.70;;;;;;1521673;77;757;-58
2023/01/15 09:59:47;;;;;;;;;;;21.60;56.60;;;;;;1515087;77;1968;-57
2023/01/15 10:01:49;;;;;;;;;;;21.60;56.80;;;;;;1517349;76;1943;-59
2023/01/15 10:03:52;;;;;;;;;;;21.70;56.90;;;;;;1516861;77;695;-57
2023/01/15 10:06:05;;;;;;;;;;;21.70;57.00;;;;;;1530817;76;679;-56
2023/01/15 10:08:26;;;;;;;;;;;21.60;56.90;;;;;;1527508;76;718;-57
2023/01/15 10:10:47;;;;;;;;;;;21.60;57.10;;;;;;1530135;76;1112;-59
2023/01/15 10:12:49;;;;;;;;;;;21.60;57.10;;;;;;1529674;76;1427;-58
2023/01/15 10:15:02;;;;;;;;;;;21.60;57.30;;;;;;1527369;76;754;-59
2023/01/15 10:17:04;;;;;;;;;;;21.70;57.50;;;;;;1527664;76;718;-58
2023/01/15 10:19:08;;;;;;;;;;;21.70;57.50;;;;;;1531388;76;1153;-58
2023/01/15 10:21:28;;;;;;;;;;;21.60;57.40;;;;;;1527287;76;1940;-59
2023/01/15 10:23:34;;;;;;;;;;;21.80;57.70;;;;;;1500034;78;1596;-59
2023/01/15 10:25:44;;;;;;;;;;;21.80;56.60;;;;;;1524066;76;728;-58
2023/01/15 10:27:47;;;;;;;;;;;21.70;55.80;;;;;;1526757;76;1981;-58
2023/01/15 10:29:51;;;;;;;;;;;21.70;55.90;;;;;;1518678;76;1165;-59
2023/01/15 10:32:11;;;;;;;;;;;21.80;55.30;;;;;;1524263;76;876;-58
2023/01/15 10:34:17;;;;;;;;;;;21.70;55.70;;;;;;1522151;76;623;-59
2023/01/15 10:36:39;;;;;;;;;;;21.70;55.20;;;;;;1526662;76;1783;-58
2023/01/15 10:38:42;;;;;;;;;;;21.70;55.40;;;;;;1524773;76;1695;-59
2023/01/15 10:41:04;;;;;;;;;;;21.70;54.90;;;;;;1528900;76;2040;-59
2023/01/15 10:43:14;;;;;;;;;;;21.70;54.40;;;;;;1526949;76;1929;-59
2023/01/15 10:45:17;;;;;;;;;;;21.70;53.30;;;;;;1526188;76;733;-59
2023/01/15 10:47:20;;;;;;;;;;;21.60;53.40;;;;;;1523946;76;759;-58
2023/01/15 10:49:22;;;;;;;;;;;21.70;53.40;;;;;;1525990;76;1170;-59
2023/01/15 10:51:26;;;;;;;;;;;21.60;52.80;;;;;;1522961;76;690;-58
2023/01/15 10:53:32;;;;;;;;;;;21.70;52.90;;;;;;1528267;76;700;-59
2023/01/15 10:55:41;;;;;;;;;;;21.60;52.40;;;;;;1528890;76;1480;-58
2023/01/15 10:57:45;;;;;;;;;;;21.60;52.30;;;;;;1524347;76;719;-58
2023/01/15 10:59:59;;;;;;;;;;;21.60;52.00;;;;;;1514021;76;1593;-58
2023/01/15 11:02:01;;;;;;;;;;;21.60;51.40;;;;;;1527471;76;1914;-59
2023/01/15 11:04:03;;;;;;;;;;;21.60;50.80;;;;;;1525161;76;812;-59
2023/01/15 11:06:07;;;;;;;;;;;21.50;50.70;;;;;;1523945;76;708;-59
2023/01/15 11:08:10;;;;;;;;;;;21.60;50.40;;;;;;1528188;76;690;-59
2023/01/15 11:10:14;;;;;;;;;;;21.50;49.90;;;;;;1526289;76;1838;-56
2023/01/15 11:21:22;;;;;;;;;;;21.40;48.90;;;;;;1523907;76;1632;-58
2023/01/15 11:23:24;;;;;;;;;;;21.40;48.70;;;;;;1526383;76;1426;-58
2023/01/15 11:25:27;;;;;;;;;;;21.30;48.80;;;;;;1527789;76;662;-57
2023/01/15 11:27:32;;;;;;;;;;;21.30;48.50;;;;;;1528478;76;790;-57
2023/01/15 11:29:39;;;;;;;;;;;21.20;48.10;;;;;;1527810;76;1156;-57
2023/01/15 11:31:39;;;;;;;;;;;21.20;48.10;;;;;;1527951;76;1232;-57
2023/01/15 11:33:42;;;;;;;;;;;21.20;48.00;;;;;;1528377;76;735;-58
2023/01/15 11:35:46;;;;;;;;;;;21.20;47.80;;;;;;1527341;76;817;-58
2023/01/15 11:37:47;;;;;;;;;;;21.20;47.60;;;;;;1527438;76;1438;-58
2023/01/15 11:39:54;;;;;;;;;;;21.10;47.50;;;;;;1527313;76;1157;-58
2023/01/15 11:51:27;;;;;;;;;;;21.00;48.20;;;;;;1577134;74;1716;-70
2023/01/15 11:53:29;;;;;;;;;;;21.00;49.00;;;;;;1582378;74;722;-70
2023/01/15 11:55:31;;;;;;;;;;;20.90;49.90;;;;;;1585649;74;881;-70
2023/01/15 11:57:34;;;;;;;;;;;20.90;50.90;;;;;;1574734;74;1210;-70
2023/01/15 11:59:36;;;;;;;;;;;20.80;51.30;;;;;;1563249;76;735;-70
2023/01/15 12:01:59;;;;;;;;;;;20.80;51.70;;;;;;1565787;76;1930;-70
2023/01/15 12:04:03;;;;;;;;;;;20.80;52.20;;;;;;1552526;75;716;-70
2023/01/15 12:06:06;;;;;;;;;;;20.80;52.60;;;;;;1563958;75;1531;-69
2023/01/15 12:08:18;;;;;;;;;;;20.80;52.80;;;;;;1554186;75;1091;-70
2023/01/15 12:11:02;;;;;;;;;;;20.80;53.10;;;;;;1547885;76;1118;-70
2023/01/15 12:12:43;;;;;;;;;;;20.80;53.40;;;;;;1562741;76;1484;-70
2023/01/15 12:14:46;;;;;;;;;;;20.70;53.60;;;;;;1557674;76;810;-70
2023/01/15 12:16:48;;;;;;;;;;;20.70;53.80;;;;;;1564854;76;2228;-70
2023/01/15 12:18:52;;;;;;;;;;;20.70;53.90;;;;;;1565077;76;1177;-69
2023/01/15 12:20:55;;;;;;;;;;;20.80;54.20;;;;;;1567897;75;1558;-69
2023/01/15 12:23:05;;;;;;;;;;;20.70;54.20;;;;;;1570724;75;1931;-69
2023/01/15 12:25:08;;;;;;;;;;;20.70;54.30;;;;;;1568647;76;821;-69
2023/01/15 12:27:12;;;;;;;;;;;20.70;54.30;;;;;;1558840;76;1133;-69
2023/01/15 12:29:21;;;;;;;;;;;20.80;54.30;;;;;;1557014;75;1842;-70
2023/01/15 12:31:25;;;;;;;;;;;20.70;54.40;;;;;;1556171;76;791;-70
2023/01/15 12:33:31;;;;;;;;;;;20.70;54.40;;;;;;1564528;76;1238;-70
2023/01/15 12:35:35;;;;;;;;;;;20.80;54.30;;;;;;1552963;75;809;-70
2023/01/15 12:37:38;;;;;;;;;;;20.80;54.40;;;;;;1550717;75;1565;-69
2023/01/15 12:39:44;;;;;;;;;;;20.90;54.20;;;;;;1555098;75;709;-69
2023/01/15 12:45:07;;;;;;;;;;;20.90;53.90;;;;;;1560201;75;1661;-70
2023/01/15 12:46:22;;;;;;;;;;;21.00;53.80;;;;;;1521513;75;1414;-69
2023/01/15 12:48:28;;;;;;;;;;;21.00;53.60;;;;;;1563430;76;1886;-69
2023/01/15 12:50:43;;;;;;;;;;;21.00;53.60;;;;;;1559909;75;689;-71
2023/01/15 12:52:44;;;;;;;;;;;21.00;53.50;;;;;;1568654;76;1475;-69
2023/01/15 12:54:50;;;;;;;;;;;21.00;53.50;;;;;;1557549;76;776;-70
2023/01/15 12:57:10;;;;;;;;;;;21.10;53.70;;;;;;1563521;76;1763;-69
2023/01/15 12:59:32;;;;;;;;;;;21.00;53.60;;;;;;1560812;75;706;-69
2023/01/15 13:01:42;;;;;;;;;;;21.00;53.60;;;;;;1558623;75;1566;-69
2023/01/15 13:03:54;;;;;;;;;;;21.00;53.60;;;;;;1545946;75;1953;-69
2023/01/15 13:05:59;;;;;;;;;;;21.00;53.80;;;;;;1554072;75;1983;-70
2023/01/15 13:08:02;;;;;;;;;;;20.90;53.90;;;;;;1555131;75;1142;-69
2023/01/15 13:10:09;;;;;;;;;;;20.90;53.90;;;;;;1561840;76;828;-69
2023/01/15 13:12:14;;;;;;;;;;;20.90;53.90;;;;;;1558781;75;1883;-71